地図

経路データ

SID SEASON NUMBER BASIN SUBBASIN NAME ISO_TIME NATURE LAT LON WMO_WIND WMO_PRES WMO_AGENCY TRACK_TYPE DIST2LAND LANDFALL IFLAG USA_AGENCY USA_ATCF_ID USA_LAT USA_LON USA_RECORD USA_STATUS USA_WIND USA_PRES USA_SSHS USA_R34_NE USA_R34_SE USA_R34_SW USA_R34_NW USA_R50_NE USA_R50_SE USA_R50_SW USA_R50_NW USA_R64_NE USA_R64_SE USA_R64_SW USA_R64_NW USA_POCI USA_ROCI USA_RMW USA_EYE TOKYO_LAT TOKYO_LON TOKYO_GRADE TOKYO_WIND TOKYO_PRES TOKYO_R50_DIR TOKYO_R50_LONG TOKYO_R50_SHORT TOKYO_R30_DIR TOKYO_R30_LONG TOKYO_R30_SHORT TOKYO_LAND CMA_LAT CMA_LON CMA_CAT CMA_WIND CMA_PRES HKO_LAT HKO_LON HKO_CAT HKO_WIND HKO_PRES NEWDELHI_LAT NEWDELHI_LON NEWDELHI_GRADE NEWDELHI_WIND NEWDELHI_PRES NEWDELHI_CI NEWDELHI_DP NEWDELHI_POCI REUNION_LAT REUNION_LON REUNION_TYPE REUNION_WIND REUNION_PRES REUNION_TNUM REUNION_CI REUNION_RMW REUNION_R34_NE REUNION_R34_SE REUNION_R34_SW REUNION_R34_NW REUNION_R50_NE REUNION_R50_SE REUNION_R50_SW REUNION_R50_NW REUNION_R64_NE REUNION_R64_SE REUNION_R64_SW REUNION_R64_NW BOM_LAT BOM_LON BOM_TYPE BOM_WIND BOM_PRES BOM_TNUM BOM_CI BOM_RMW BOM_R34_NE BOM_R34_SE BOM_R34_SW BOM_R34_NW BOM_R50_NE BOM_R50_SE BOM_R50_SW BOM_R50_NW BOM_R64_NE BOM_R64_SE BOM_R64_SW BOM_R64_NW BOM_ROCI BOM_POCI BOM_EYE BOM_POS_METHOD BOM_PRES_METHOD NADI_LAT NADI_LON NADI_CAT NADI_WIND NADI_PRES WELLINGTON_LAT WELLINGTON_LON WELLINGTON_WIND WELLINGTON_PRES DS824_LAT DS824_LON DS824_STAGE DS824_WIND DS824_PRES TD9636_LAT TD9636_LON TD9636_STAGE TD9636_WIND TD9636_PRES TD9635_LAT TD9635_LON TD9635_WIND TD9635_PRES TD9635_ROCI NEUMANN_LAT NEUMANN_LON NEUMANN_CLASS NEUMANN_WIND NEUMANN_PRES MLC_LAT MLC_LON MLC_CLASS MLC_WIND MLC_PRES USA_GUST BOM_GUST BOM_GUST_PER REUNION_GUST REUNION_GUST_PER USA_SEAHGT USA_SEARAD_NE USA_SEARAD_SE USA_SEARAD_SW USA_SEARAD_NW STORM_SPEED STORM_DIR
1999208N06139 1999 51 WP MM OLGA 1999-07-26 18:00:00 NR 5.50000 138.700 main 771 771 O_____________ jtwc_wp WP111999 5.50000 138.700 20 -1 3 334
1999208N06139 1999 51 WP MM OLGA 1999-07-26 21:00:00 NR 5.65499 138.625 main 787 787 P_____________ WP111999 5.65499 138.625 20 -1 4 334
1999208N06139 1999 51 WP MM OLGA 1999-07-27 00:00:00 NR 5.90000 138.500 main 804 804 O_____________ jtwc_wp WP111999 5.90000 138.500 20 -1 7 333
1999208N06139 1999 51 WP MM OLGA 1999-07-27 03:00:00 NR 6.28502 138.300 main 839 839 P_____________ WP111999 6.28502 138.300 20 -1 9 334
1999208N06139 1999 51 WP MM OLGA 1999-07-27 06:00:00 NR 6.70000 138.100 main 874 874 O_____________ jtwc_wp WP111999 6.70000 138.100 20 -1 8 337
1999208N06139 1999 51 WP MM OLGA 1999-07-27 09:00:00 NR 6.99247 138.000 main 903 903 P_____________ WP111999 6.99247 138.000 20 -1 6 342
1999208N06139 1999 51 WP MM OLGA 1999-07-27 12:00:00 NR 7.30000 137.900 main 932 932 O_____________ jtwc_wp WP111999 7.30000 137.900 20 -1 8 340
1999208N06139 1999 51 WP MM OLGA 1999-07-27 15:00:00 NR 7.71248 137.737 main 969 969 P_____________ WP111999 7.71248 137.737 20 -1 10 336
1999208N06139 1999 51 WP MM OLGA 1999-07-27 18:00:00 NR 8.20000 137.500 main 1019 1019 O_____________ jtwc_wp WP111999 8.20000 137.500 20 -1 12 332
1999208N06139 1999 51 WP MM OLGA 1999-07-27 21:00:00 NR 8.76504 137.165 main 1079 1077 P_____________ WP111999 8.76504 137.165 20 -1 13 328
1999208N06139 1999 51 WP MM OLGA 1999-07-28 00:00:00 NR 9.30000 136.800 main 1128 1109 O_____________ jtwc_wp WP111999 9.30000 136.800 20 -1 11 324
1999208N06139 1999 51 WP MM OLGA 1999-07-28 03:00:00 NR 9.66495 136.492 main 1111 1084 P_____________ WP111999 9.66495 136.492 20 -1 9 320
1999208N06139 1999 51 WP MM OLGA 1999-07-28 06:00:00 NR 10.0000 136.200 main 1086 1065 O_____________ jtwc_wp WP111999 10.0000 136.200 20 -1 10 322
1999208N06139 1999 51 WP MM OLGA 1999-07-28 09:00:00 NR 10.4425 135.885 main 1065 1044 P_____________ WP111999 10.4425 135.885 20 -1 11 327
1999208N06139 1999 51 WP MM OLGA 1999-07-28 12:00:00 NR 10.9000 135.600 main 1046 1032 O_____________ jtwc_wp WP111999 10.9000 135.600 20 -1 10 330
1999208N06139 1999 51 WP MM OLGA 1999-07-28 15:00:00 NR 11.3074 135.385 main 1034 1021 P_____________ WP111999 11.3074 135.385 20 -1 9 334
1999208N06139 1999 51 WP MM OLGA 1999-07-28 18:00:00 NR 11.7000 135.200 main 1023 1009 O_____________ jtwc_wp WP111999 11.7000 135.200 20 -1 9 334
1999208N06139 1999 51 WP MM OLGA 1999-07-28 21:00:00 NR 12.0850 135.000 main 1010 991 P_____________ WP111999 12.0850 135.000 22 -1 8 329
1999208N06139 1999 51 WP MM OLGA 1999-07-29 00:00:00 TS 12.4000 134.771 1000 tokyo main 993 976 OOOO__________ jtwc_wp WP111999 12.5000 134.800 25 -1 12.3000 134.500 2 1000 0 0 0 12.3000 134.500 1 29 1000 12.2000 135.200 TD 25 1000 10 334
1999208N06139 1999 51 WP MM OLGA 1999-07-29 03:00:00 TS 13.0175 134.538 main 972 965 PPPP__________ WP111999 12.9925 134.600 27 -1 13.1201 134.245 2 1000 0 0 13.1201 134.245 1 29 1000 12.8625 135.000 TD 25 1000 13 340
1999208N06139 1999 51 WP MM OLGA 1999-07-29 06:00:00 TS 13.6385 134.308 1000 tokyo main 967 953 OOOO__________ jtwc_wp WP111999 13.5000 134.400 30 -1 13.8000 134.000 2 1000 0 0 0 13.8000 134.000 1 29 1000 13.5000 134.800 TD 25 1000 12 339
1999208N06139 1999 51 WP MM OLGA 1999-07-29 09:00:00 TS 14.1369 134.087 main 955 944 PPPP__________ WP111999 13.9425 134.192 30 -1 14.2525 133.777 2 1000 0 0 14.2525 133.777 1 29 1000 14.1000 134.600 TD 25 1000 10 337
1999208N06139 1999 51 WP MM OLGA 1999-07-29 12:00:00 TS 14.5750 133.900 1000 tokyo main 947 940 OOOO__________ jtwc_wp WP111999 14.4000 134.000 30 -1 14.6000 133.600 2 1000 0 0 0 14.6000 133.600 1 29 1000 14.7000 134.400 TD 25 1000 10 339
1999208N06139 1999 51 WP MM OLGA 1999-07-29 15:00:00 TS 15.0450 133.736 main 940 940 PPPP__________ WP111999 14.9125 133.827 32 -1 14.9625 133.455 2 999 0 0 14.9625 133.455 1 29 1000 15.3425 134.207 TD 27 999 10 345
1999208N06139 1999 51 WP MM OLGA 1999-07-29 18:00:00 TS 15.5750 133.625 998 tokyo main 953 953 OOOO__________ jtwc_wp WP111999 15.5000 133.700 35 0 15.4000 133.400 2 998 0 0 0 15.4000 133.400 1 29 1000 16.0000 134.000 TD 30 998 11 353
1999208N06139 1999 51 WP MM OLGA 1999-07-29 21:00:00 TS 16.1757 133.594 main 981 981 PPPP__________ WP111999 16.1325 133.650 37 0 15.9601 133.485 2 997 0 0 15.9601 133.485 1 29 999 16.6500 133.757 TD 32 997 13 358
1999208N06139 1999 51 WP MM OLGA 1999-07-30 00:00:00 TS 16.9000 133.575 35 996 tokyo main 1018 1018 OOOO__________ jtwc_wp WP111999 16.9000 133.600 40 0 16.7000 133.600 3 35 996 0 9 100 100 0 16.7000 133.600 1 29 998 17.3000 133.500 TS 35 996 16 358
1999208N06139 1999 51 WP MM OLGA 1999-07-30 03:00:00 TS 17.8030 133.534 main 1063 1063 PPPP__________ WP111999 17.8998 133.510 40 0 17.6848 133.689 3 35 995 0 9 115 115 17.6773 133.689 1 31 996 17.9500 133.250 TS 37 995 18 354
1999208N06139 1999 51 WP MM OLGA 1999-07-30 06:00:00 TS 18.7250 133.375 35 994 tokyo main 1100 1096 OOOO__________ jtwc_wp WP111999 18.9000 133.300 40 0 18.7000 133.600 3 35 994 0 9 130 130 0 18.7000 133.600 2 34 995 18.6000 133.000 TS 40 994 18 343
1999208N06139 1999 51 WP MM OLGA 1999-07-30 09:00:00 TS 19.5271 132.986 main 1109 1087 PPPP__________ WP111999 19.6977 132.873 42 0 19.5478 133.161 3 37 992 0 9 155 155 19.5903 133.161 2 39 992 19.2725 132.750 TS 42 992 17 331
1999208N06139 1999 51 WP MM OLGA 1999-07-30 12:00:00 TS 20.1750 132.525 40 990 tokyo main 1089 1064 OOOO__________ jtwc_wp WP111999 20.3000 132.400 45 0 20.2000 132.600 3 40 990 0 9 180 180 0 20.3000 132.600 2 44 990 19.9000 132.500 TS 45 990 13 325
1999208N06139 1999 51 WP MM OLGA 1999-07-30 15:00:00 TS 20.6274 132.166 main 1066 1043 PPPP__________ WP111999 20.7023 132.077 50 0 20.6024 132.169 3 45 987 0 9 190 190 20.7748 132.169 2 46 987 20.4299 132.250 TS 47 987 10 322
1999208N06139 1999 51 WP MM OLGA 1999-07-30 18:00:00 TS 20.9750 131.850 50 985 tokyo main 1045 1021 OOOO__________ jtwc_wp WP111999 21.0000 131.800 55 0 20.9000 131.800 4 50 985 0 9 200 200 0 21.1000 131.800 3 48 985 20.9000 132.000 STS 50 985 9 321
1999208N06139 1999 51 WP MM OLGA 1999-07-30 21:00:00 TS 21.3387 131.547 main 1015 1005 PPPP__________ WP111999 21.3275 131.485 57 0 21.2774 131.477 4 50 985 0 9 287 200 21.3849 131.477 3 48 985 21.3650 131.750 STS 50 985 9 325
1999208N06139 1999 51 WP MM OLGA 1999-07-31 00:00:00 TS 21.7250 131.275 50 985 tokyo main 1009 963 OOOO__________ jtwc_wp WP111999 21.7000 131.200 60 0 21.7000 131.200 4 50 985 0 2 375 200 0 21.7000 131.200 3 48 985 21.8000 131.500 STS 50 985 10 331
1999208N06139 1999 51 WP MM OLGA 1999-07-31 03:00:00 TS 22.2150 131.019 main 963 927 PPPP__________ WP111999 22.2149 130.985 60 0 22.2225 130.920 4 50 985 0 2 375 200 22.2075 130.928 3 51 982 22.2150 131.242 STS 50 985 11 335
1999208N06139 1999 51 WP MM OLGA 1999-07-31 06:00:00 TS 22.6750 130.800 50 985 tokyo main 927 893 OOOO__________ jtwc_wp WP111999 22.7000 130.800 60 0 22.7000 130.700 4 50 985 0 2 375 200 0 22.7000 130.700 3 54 980 22.6000 131.000 STS 50 985 8 336
1999208N06139 1999 51 WP MM OLGA 1999-07-31 09:00:00 TS 22.9779 130.642 main 893 871 PPPP__________ WP111999 22.9875 130.600 62 0 22.9942 130.620 4 50 985 0 2 375 200 22.9799 130.542 3 56 980 22.9499 130.807 STS 52 982 6 332
1999208N06139 1999 51 WP MM OLGA 1999-07-31 12:00:00 TS 23.2250 130.475 50 985 tokyo main 871 838 OOOO__________ jtwc_wp WP111999 23.2000 130.400 65 1 23.2000 130.500 4 50 985 0 2 375 200 0 23.2000 130.400 3 58 980 23.3000 130.600 STS 55 980 6 324
1999208N06139 1999 51 WP MM OLGA 1999-07-31 15:00:00 TS 23.4918 130.240 50 985 tokyo main 838 806 POPP__________ WP111999 23.4123 130.229 67 1 23.4000 130.200 4 50 985 0 2 375 200 0 23.4550 130.215 3 58 980 23.7000 130.315 STS 55 980 8 325
1999208N06139 1999 51 WP MM OLGA 1999-07-31 18:00:00 TS 23.8500 130.000 55 980 tokyo main 795 754 OOOO__________ jtwc_wp WP111999 23.7000 130.000 70 1 23.8000 130.000 4 55 980 9 40 40 2 400 250 0 23.8000 130.000 3 58 980 24.1000 130.000 STS 55 980 10 330
1999208N06139 1999 51 WP MM OLGA 1999-07-31 21:00:00 TS 24.3444 129.693 55 980 tokyo main 754 703 POPP__________ WP111999 24.1778 129.608 70 1 24.4000 129.700 4 55 980 9 40 40 2 400 200 0 24.3500 129.758 3 58 980 24.4499 129.707 STS 57 977 11 330
1999208N06139 1999 51 WP MM OLGA 1999-08-01 00:00:00 TS 24.8250 129.375 55 980 tokyo main 703 666 OOOO__________ jtwc_wp WP111999 24.7000 129.200 70 1 24.9000 129.400 4 55 980 9 40 40 2 350 150 0 24.9000 129.500 3 58 980 24.8000 129.400 STS 60 975 10 328
1999208N06139 1999 51 WP MM OLGA 1999-08-01 03:00:00 TS 25.2055 129.091 55 980 tokyo main 666 638 POPP__________ WP111999 25.1072 128.949 72 1 25.3000 129.100 4 55 980 9 40 40 2 300 150 0 25.2224 129.264 3 63 975 25.1925 129.050 STS 62 972 8 326
1999208N06139 1999 51 WP MM OLGA 1999-08-01 06:00:00 TS 25.5250 128.850 60 975 tokyo main 638 605 OOOO__________ jtwc_wp WP111999 25.5000 128.700 75 1 25.5000 129.000 4 60 975 9 50 50 2 300 150 0 25.5000 129.000 4 68 970 25.6000 128.700 T 65 970 9 324
1999208N06139 1999 51 WP MM OLGA 1999-08-01 09:00:00 TS 25.9106 128.522 60 975 tokyo main 608 578 POPP__________ WP111999 25.9501 128.315 70 1 25.8000 128.700 4 60 975 9 50 50 2 300 150 0 25.8848 128.687 4 68 970 26.0074 128.385 T 65 970 11 321
1999208N06139 1999 51 WP MM OLGA 1999-08-01 12:00:00 TS 26.3500 128.100 65 970 tokyo main 572 553 OOOO__________ jtwc_wp WP111999 26.4000 127.900 65 1 26.3000 128.100 5 65 970 9 60 60 2 300 150 0 26.3000 128.300 4 68 970 26.4000 128.100 T 65 970 12 319
1999208N06139 1999 51 WP MM OLGA 1999-08-01 15:00:00 TS 26.7719 127.673 65 970 tokyo main 547 532 POPP__________ WP111999 26.8223 127.542 70 1 26.8000 127.500 5 65 970 9 60 60 2 300 150 0 26.7152 127.800 4 68 970 26.7499 127.850 T 65 970 11 318
1999208N06139 1999 51 WP MM OLGA 1999-08-01 18:00:00 TS 27.1500 127.300 60 975 tokyo main 527 523 OOOO__________ jtwc_wp WP111999 27.2000 127.200 75 1 27.2000 127.100 4 60 975 9 40 40 2 300 150 0 27.1000 127.300 4 68 970 27.1000 127.600 T 65 970 9 316
1999208N06139 1999 51 WP MM OLGA 1999-08-01 21:00:00 TS 27.4425 126.952 60 975 tokyo main 525 484 POPP__________ WP111999 27.4926 126.812 75 1 27.4000 126.800 4 60 975 9 40 40 2 300 150 0 27.3849 126.897 4 68 970 27.4925 127.300 T 65 970 8 318
1999208N06139 1999 51 WP MM OLGA 1999-08-02 00:00:00 TS 27.7750 126.675 60 975 tokyo main 484 452 OOOO__________ jtwc_wp WP111999 27.8000 126.500 75 1 27.7000 126.600 4 60 975 9 40 40 2 300 150 0 27.7000 126.600 4 68 970 27.9000 127.000 T 65 970 9 332
1999208N06139 1999 51 WP MM OLGA 1999-08-02 03:00:00 TS 28.2249 126.483 60 970 tokyo main 452 431 POPP__________ WP111999 28.1973 126.369 75 1 28.3000 126.400 4 60 970 9 40 40 2 300 150 0 28.1399 126.420 4 68 970 28.2624 126.742 T 65 970 10 343
1999208N06139 1999 51 WP MM OLGA 1999-08-02 06:00:00 TS 28.7000 126.350 60 975 tokyo main 431 407 OOOO__________ jtwc_wp WP111999 28.7000 126.300 75 1 28.7000 126.300 4 60 975 9 40 40 2 300 150 0 28.7000 126.300 4 68 970 28.7000 126.500 T 65 970 11 346
1999208N06139 1999 51 WP MM OLGA 1999-08-02 09:00:00 TS 29.3260 126.175 main 407 358 PPPP__________ WP111999 29.2976 126.135 77 1 29.3387 126.200 4 60 975 9 40 40 2 300 150 29.3700 126.143 4 68 970 29.2976 126.220 T 65 970 14 348
1999208N06139 1999 51 WP MM OLGA 1999-08-02 12:00:00 TS 30.0500 126.025 60 975 tokyo main 346 281 OOOO__________ jtwc_wp WP111999 30.0000 126.000 80 1 30.1000 126.100 4 60 975 9 40 40 2 300 150 0 30.1000 126.000 4 68 970 30.0000 126.000 T 65 970 14 352
1999208N06139 1999 51 WP MM OLGA 1999-08-02 15:00:00 TS 30.7444 125.940 main 281 193 PPPP__________ WP111999 30.7550 125.977 77 1 30.7550 125.985 4 60 975 9 40 40 2 300 150 30.7550 125.885 4 68 970 30.7124 125.912 T 65 970 15 356
1999208N06139 1999 51 WP MM OLGA 1999-08-02 18:00:00 TS 31.5250 125.900 60 975 tokyo main 193 96 OOOO__________ jtwc_wp WP111999 31.6000 126.000 75 1 31.5000 125.900 4 60 975 9 40 40 2 300 150 0 31.5000 125.800 4 68 970 31.5000 125.900 T 65 970 17 358
1999208N06139 1999 51 WP MM OLGA 1999-08-02 21:00:00 TS 32.4688 125.869 main 86 27 PPPP__________ WP111999 32.5050 125.978 72 1 32.5000 125.885 4 60 975 9 40 40 2 300 150 32.5000 125.720 4 68 972 32.3700 125.892 T 65 970 19 0
1999208N06139 1999 51 WP MM OLGA 1999-08-03 00:00:00 TS 33.4500 125.875 60 975 tokyo main 35 35 OOOO__________ jtwc_wp WP111999 33.5000 126.000 70 1 33.5000 125.900 4 60 975 9 40 40 2 300 150 0 33.5000 125.700 4 68 975 33.3000 125.900 T 65 970 18 2
1999208N06139 1999 51 WP MM OLGA 1999-08-03 03:00:00 TS 34.2825 125.917 main 49 18 PPPP__________ WP111999 34.6151 126.134 70 1 34.1624 125.864 4 57 975 9 40 40 2 250 125 34.1326 125.785 4 61 977 34.2200 125.886 T 60 975 17 4
1999208N06139 1999 51 WP MM OLGA 1999-08-03 06:00:00 TS 35.1750 126.000 55 975 tokyo main 21 21 OOOO__________ jtwc_wp WP111999 35.7000 126.300 70 1 34.9000 125.900 4 55 975 9 40 40 3 200 100 0 34.9000 125.900 3 54 980 35.2000 125.900 STS 55 980 20 5
1999208N06139 1999 51 WP MM OLGA 1999-08-03 09:00:00 TS 36.2608 126.112 main 21 0 PPPP__________ WP111999 36.5200 126.423 62 0 36.0155 126.147 4 52 980 9 3 175 100 36.2452 125.937 3 49 982 36.2623 125.942 STS 50 982 23 5
1999208N06139 1999 51 WP MM OLGA 1999-08-03 12:00:00 TS 37.5067 126.260 50 985 tokyo main 20 0 OOOO__________ jtwc_wp WP111999 37.4000 126.500 55 0 37.4000 126.400 4 50 985 0 3 150 100 0 37.8000 126.000 2 44 985 37.4000 126.100 TS 45 985 27 5
1999208N06139 1999 51 WP MM OLGA 1999-08-03 15:00:00 TS 38.8976 126.390 main 0 0 PPPP__________ WP111999 38.6925 126.516 45 0 38.9625 126.433 4 987 0 3 39.1926 126.198 2 36 990 38.5880 126.441 TS 37 988 29 3
1999208N06139 1999 51 WP MM OLGA 1999-08-03 18:00:00 MX 40.3833 126.467 990 tokyo main 0 0 OOOO__________ jtwc_wp WP111999 40.0000 126.500 35 0 40.6000 126.400 6 990 0 0 0 40.6000 126.400 1 29 995 39.8000 126.900 TD 30 992 31 1
1999208N06139 1999 51 WP MM OLGA 1999-08-03 21:00:00 MX 41.9702 126.454 main 0 0 PPP___________ WP111999 41.0023 126.495 30 -1 42.2272 126.428 6 993 0 0 42.1972 126.460 1 29 996 TD 30 0
1999208N06139 1999 51 WP MM OLGA 1999-08-04 00:00:00 MX 43.4000 126.500 996 tokyo main 0 0 OOO___________ jtwc_wp WP111999 41.8000 126.500 25 -1 43.6000 126.500 6 996 0 0 0 43.6000 126.500 1 29 998 25 3
1999208N06139 1999 51 WP MM OLGA 1999-08-04 03:00:00 MX 44.4548 126.628 main 0 0 _PP___________ WP111999 -1 44.4548 126.628 6 997 0 0 44.4548 126.628 1 26 998 17 7
1999208N06139 1999 51 WP MM OLGA 1999-08-04 06:00:00 MX 45.1000 126.800 998 tokyo main 0 0 _OO___________ -1 45.1000 126.800 6 998 0 0 0 45.1000 126.800 1 23 998 14 10
1999208N06139 1999 51 WP MM OLGA 1999-08-04 09:00:00 MX 45.8791 126.969 main 0 0 _PP___________ -1 45.8922 126.957 6 999 0 0 45.8527 126.993 1 21 998 16 10
1999208N06139 1999 51 WP MM OLGA 1999-08-04 12:00:00 MX 46.7000 127.200 1000 tokyo main 0 0 _OO___________ -1 46.7000 127.200 6 1000 0 0 0 46.7000 127.200 0 19 999 17 14
1999208N06139 1999 51 WP MM OLGA 1999-08-04 15:00:00 ET 47.5143 127.554 main 0 0 _P____________ -1 47.5143 127.554 6 1000 0 0 0 17 21
1999208N06139 1999 51 WP MM OLGA 1999-08-04 18:00:00 ET 48.3000 128.100 1000 tokyo main 0 0 _O____________ -1 48.3000 128.100 6 1000 0 0 0 18 31
1999208N06139 1999 51 WP MM OLGA 1999-08-04 21:00:00 ET 49.0311 128.918 main 0 0 _P____________ -1 49.0311 128.918 6 1000 0 0 18 39
1999208N06139 1999 51 WP MM OLGA 1999-08-05 00:00:00 ET 49.7000 129.800 1000 tokyo main 0 0 _O____________ -1 49.7000 129.800 6 1000 0 0 0 16 39
1999208N06139 1999 51 WP MM OLGA 1999-08-05 03:00:00 ET 50.3146 130.509 main 0 0 _P____________ -1 50.3146 130.509 6 998 0 0 15 35
1999208N06139 1999 51 WP MM OLGA 1999-08-05 06:00:00 ET 50.9000 131.100 996 tokyo main 0 _O____________ -1 50.9000 131.100 6 996 0 0 0 14 33

デジタル台風データ・検索

IBTrACS Databaseについて

本データベースは、米国NOAAが公開する1842年以降の世界の熱帯低気圧のベストトラックデータアーカイブInternational Best Track Archive for Climate Stewardship (IBTrACS)を、ウェブで閲覧しやすい形式に変換したものです。

最終更新日:2021-10-08